Time;durP1;ratioP1;P1;durP2;ratioP2;P2;SDS_P1;SDS_P2;PMS_P1;PMS_P2;Temp;Humidity;BMP_temperature;BMP_pressure;BME280_temperature;BME280_humidity;BME280_pressure;Samples;Min_cycle;Max_cycle;Signal;HPM_P1;HPM_P2
2023/03/10 00:01:38;;;;;;;10.95;4.57;;;20.10;63.50;;;;;;4796017;29;87022;-82
2023/03/10 00:04:03;;;;;;;10.18;4.10;;;20.10;63.50;;;;;;4793959;29;88181;-83
2023/03/10 00:06:33;;;;;;;10.18;4.22;;;20.10;63.50;;;;;;4798833;29;88708;-83
2023/03/10 00:08:59;;;;;;;11.98;4.35;;;20.10;63.50;;;;;;4806922;29;87433;-83
2023/03/10 00:11:25;;;;;;;11.35;4.90;;;20.10;64.50;;;;;;4807335;29;87316;-83
2023/03/10 00:13:53;;;;;;;12.15;4.80;;;20.10;64.40;;;;;;4807490;29;89595;-82
2023/03/10 00:16:21;;;;;;;7.25;3.85;;;20.00;63.30;;;;;;4807254;29;89886;-82
2023/03/10 00:18:47;;;;;;;11.40;4.63;;;20.00;63.50;;;;;;4768055;29;87684;-82
2023/03/10 00:21:18;;;;;;;8.30;4.47;;;20.00;63.60;;;;;;4768469;29;87488;-82
2023/03/10 00:27:05;;;;;;;9.60;4.63;;;20.00;63.60;;;;;;4767963;29;87253;-83
2023/03/10 00:29:31;;;;;;;9.25;4.10;;;20.00;63.60;;;;;;4768795;29;87598;-83
2023/03/10 00:31:57;;;;;;;9.32;3.92;;;20.00;63.60;;;;;;4769194;29;86629;-83
2023/03/10 00:34:22;;;;;;;9.40;3.50;;;20.00;63.70;;;;;;4768111;29;87214;-83
2023/03/10 00:36:48;;;;;;;8.88;4.00;;;19.90;63.80;;;;;;4768786;29;87372;-83
2023/03/10 00:39:14;;;;;;;10.88;4.28;;;19.90;63.60;;;;;;4768355;29;88809;-83
2023/03/10 00:41:39;;;;;;;7.65;3.55;;;19.90;63.50;;;;;;4767181;29;87629;-82
2023/03/10 00:44:08;;;;;;;9.93;3.88;;;19.90;63.60;;;;;;4769294;29;89046;-83
2023/03/10 00:46:35;;;;;;;8.10;3.97;;;19.90;63.40;;;;;;4768550;29;87986;-83
2023/03/10 00:49:01;;;;;;;10.25;3.83;;;19.90;63.40;;;;;;4772832;29;87527;-83
2023/03/10 00:51:27;;;;;;;12.38;4.88;;;19.90;63.50;;;;;;4802756;29;87628;-83
2023/03/10 00:53:52;;;;;;;7.43;3.95;;;19.90;63.40;;;;;;4806285;29;88666;-82
2023/03/10 00:56:24;;;;;;;7.13;3.63;;;19.90;63.30;;;;;;4806925;29;87442;-82
2023/03/10 00:58:55;;;;;;;10.25;4.40;;;19.80;63.40;;;;;;4807499;29;87700;-82
2023/03/10 01:01:27;;;;;;;10.73;4.25;;;19.80;63.20;;;;;;4806735;29;87235;-83
2023/03/10 01:03:56;;;;;;;8.30;4.05;;;19.80;63.40;;;;;;4806186;29;89470;-82
2023/03/10 01:06:22;;;;;;;9.43;3.77;;;19.80;63.40;;;;;;4806119;29;88911;-82
2023/03/10 01:08:48;;;;;;;9.40;4.05;;;19.80;63.40;;;;;;4806347;29;87541;-82
2023/03/10 01:11:16;;;;;;;10.27;4.03;;;19.80;63.40;;;;;;4806791;29;87623;-82
2023/03/10 01:13:42;;;;;;;6.80;3.33;;;19.80;63.60;;;;;;4807652;29;88651;-83
2023/03/10 01:16:08;;;;;;;9.02;4.03;;;19.80;63.50;;;;;;4805692;29;87870;-82
2023/03/10 01:18:34;;;;;;;11.57;4.50;;;19.80;63.50;;;;;;4806359;29;87647;-82
2023/03/10 01:21:00;;;;;;;9.20;4.18;;;19.80;63.50;;;;;;4806502;29;87194;-82
2023/03/10 01:23:26;;;;;;;8.18;3.72;;;19.80;63.60;;;;;;4806250;29;87685;-82
2023/03/10 01:25:52;;;;;;;9.43;3.60;;;19.70;63.40;;;;;;4807464;29;88229;-82
2023/03/10 01:28:19;;;;;;;8.82;3.45;;;19.70;63.50;;;;;;4805994;29;88252;-82
2023/03/10 01:30:46;;;;;;;10.60;4.25;;;19.70;63.70;;;;;;4805790;29;87435;-83
2023/03/10 01:33:12;;;;;;;8.52;3.95;;;19.70;63.40;;;;;;4806356;29;88315;-82
2023/03/10 01:35:38;;;;;;;7.57;3.60;;;19.70;63.50;;;;;;4806196;29;88432;-82
2023/03/10 01:38:05;;;;;;;8.50;3.83;;;19.70;63.50;;;;;;4807102;29;87532;-83
2023/03/10 01:40:31;;;;;;;7.00;3.35;;;19.70;63.40;;;;;;4791209;29;87521;-82
2023/03/10 01:43:26;;;;;;;11.07;3.95;;;19.70;63.40;;;;;;4805727;29;88266;-82
2023/03/10 01:45:52;;;;;;;7.47;3.30;;;19.70;63.50;;;;;;4806174;29;88326;-82
2023/03/10 01:48:20;;;;;;;9.80;4.25;;;19.60;63.40;;;;;;4806046;29;87443;-82
2023/03/10 01:50:50;;;;;;;7.57;3.73;;;19.60;63.40;;;;;;4806092;29;87729;-83
2023/03/10 01:53:18;;;;;;;7.60;3.53;;;19.70;63.40;;;;;;4805316;29;90291;-82
2023/03/10 01:55:51;;;;;;;8.45;4.10;;;19.60;64.10;;;;;;4806753;29;89816;-82
2023/03/10 01:58:19;;;;;;;6.45;3.38;;;19.60;63.40;;;;;;4806227;29;87051;-82
2023/03/10 02:00:45;;;;;;;7.03;3.47;;;19.60;63.40;;;;;;4805773;29;87522;-83
2023/03/10 02:03:19;;;;;;;8.82;3.45;;;19.60;63.50;;;;;;4806060;29;88338;-82
2023/03/10 02:05:50;;;;;;;7.72;3.40;;;19.60;63.50;;;;;;4805804;29;88376;-83
2023/03/10 02:08:17;;;;;;;8.35;3.72;;;19.60;63.50;;;;;;4806164;29;87248;-82
2023/03/10 02:10:43;;;;;;;7.25;3.38;;;19.60;64.20;;;;;;4807215;29;86695;-82
2023/03/10 02:13:09;;;;;;;8.23;3.58;;;19.50;63.40;;;;;;4805501;29;87917;-82
2023/03/10 02:15:36;;;;;;;7.10;3.25;;;19.50;63.30;;;;;;4805646;29;87430;-82
2023/03/10 02:18:04;;;;;;;7.32;3.50;;;19.50;63.40;;;;;;4804944;29;88268;-82
2023/03/10 02:27:28;;;;;;;7.82;3.55;;;19.50;63.30;;;;;;4712024;29;87699;-83
2023/03/10 02:30:34;;;;;;;11.63;3.90;;;19.50;63.40;;;;;;4713081;29;87511;-82
2023/03/10 02:33:13;;;;;;;7.57;3.72;;;19.50;63.50;;;;;;4659797;30;87569;-83
2023/03/10 02:35:39;;;;;;;6.65;3.10;;;19.50;63.50;;;;;;4660392;30;89374;-83
2023/03/10 02:38:05;;;;;;;6.10;3.25;;;19.40;63.40;;;;;;4661636;30;88263;-82
2023/03/10 02:40:33;;;;;;;8.40;3.88;;;19.40;63.40;;;;;;4660180;30;87537;-83
2023/03/10 02:43:04;;;;;;;6.78;2.92;;;19.40;63.50;;;;;;4659339;30;87574;-82
2023/03/10 02:45:34;;;;;;;6.78;3.42;;;19.40;63.50;;;;;;4659557;30;88463;-82
2023/03/10 02:48:00;;;;;;;7.57;3.45;;;19.40;63.50;;;;;;4659923;30;89244;-83
2023/03/10 02:50:29;;;;;;;8.70;3.28;;;19.40;63.50;;;;;;4659978;30;87442;-82
2023/03/10 02:53:03;;;;;;;4.55;2.50;;;19.40;63.50;;;;;;4660109;30;87635;-82
2023/03/10 02:55:31;;;;;;;6.60;3.38;;;19.40;63.50;;;;;;4651371;30;88428;-82
2023/03/10 02:58:01;;;;;;;7.75;3.40;;;19.40;63.60;;;;;;4659963;30;88364;-82
2023/03/10 03:00:27;;;;;;;5.78;3.00;;;19.40;63.60;;;;;;4725181;29;87370;-82
2023/03/10 03:03:10;;;;;;;8.63;3.75;;;19.30;63.60;;;;;;4748737;29;86474;-82
2023/03/10 03:05:36;;;;;;;9.15;3.50;;;19.30;63.50;;;;;;4748305;29;87794;-82
2023/03/10 03:08:03;;;;;;;5.97;3.08;;;19.30;63.50;;;;;;4770897;29;87475;-82
2023/03/10 03:10:29;;;;;;;6.38;3.28;;;19.40;63.50;;;;;;4804731;29;88064;-82
2023/03/10 03:12:55;;;;;;;6.50;3.20;;;19.30;63.40;;;;;;4805042;29;87564;-82
2023/03/10 03:15:22;;;;;;;4.43;2.67;;;19.30;63.40;;;;;;4804165;29;88657;-82
2023/03/10 03:17:47;;;;;;;4.57;2.55;;;19.30;63.40;;;;;;4804803;29;88065;-83
2023/03/10 03:20:13;;;;;;;7.72;3.00;;;19.30;63.40;;;;;;4805286;29;86949;-82
2023/03/10 03:22:44;;;;;;;8.00;3.15;;;19.30;63.40;;;;;;4805398;29;86967;-82
2023/03/10 03:25:14;;;;;;;7.85;3.35;;;19.30;63.50;;;;;;4804442;29;88555;-82
2023/03/10 03:27:40;;;;;;;5.22;2.78;;;19.30;63.40;;;;;;4804907;29;88392;-82
2023/03/10 03:30:12;;;;;;;7.43;2.83;;;19.30;63.50;;;;;;4805607;29;87010;-82
2023/03/10 03:32:37;;;;;;;5.65;3.15;;;19.20;63.40;;;;;;4804743;29;87527;-83
2023/03/10 03:35:07;;;;;;;6.43;2.45;;;19.20;63.30;;;;;;4805196;29;89231;-82
2023/03/10 03:37:33;;;;;;;6.40;2.72;;;19.20;63.40;;;;;;4806312;29;88914;-82
2023/03/10 03:39:59;;;;;;;6.65;3.00;;;19.20;63.40;;;;;;4806308;29;86823;-82
2023/03/10 03:42:24;;;;;;;6.78;3.00;;;19.20;63.30;;;;;;4807919;29;87490;-83
2023/03/10 03:44:50;;;;;;;5.80;2.53;;;19.20;63.30;;;;;;4798590;29;87726;-82
2023/03/10 03:47:15;;;;;;;7.28;3.03;;;19.20;63.30;;;;;;4806455;29;88019;-82
2023/03/10 03:49:41;;;;;;;8.77;3.65;;;19.20;63.40;;;;;;4809234;29;86813;-82
2023/03/10 03:52:07;;;;;;;6.75;2.92;;;19.20;63.00;;;;;;4807918;29;87839;-82
2023/03/10 03:54:33;;;;;;;6.60;3.22;;;19.20;63.20;;;;;;4807410;29;88754;-82
2023/03/10 03:56:59;;;;;;;6.07;3.25;;;19.20;63.40;;;;;;4799496;29;88290;-83
2023/03/10 03:59:24;;;;;;;5.53;3.05;;;19.20;63.40;;;;;;4807194;29;88049;-82
2023/03/10 04:01:50;;;;;;;5.40;2.50;;;19.20;63.30;;;;;;4808748;29;87102;-83
2023/03/10 04:04:15;;;;;;;6.80;3.10;;;19.20;63.40;;;;;;4807725;29;89123;-82
2023/03/10 04:06:41;;;;;;;7.50;3.10;;;19.20;63.40;;;;;;4805340;29;87765;-83
2023/03/10 04:09:09;;;;;;;4.95;2.60;;;19.10;63.30;;;;;;4797792;29;87213;-82
2023/03/10 04:11:35;;;;;;;5.05;2.67;;;19.20;63.30;;;;;;4798425;29;87536;-82
2023/03/10 04:17:22;;;;;;;7.53;2.78;;;19.10;63.20;;;;;;4796929;29;90430;-83
2023/03/10 04:19:48;;;;;;;5.65;2.95;;;19.10;63.10;;;;;;4799968;29;87347;-83
2023/03/10 04:22:13;;;;;;;6.82;3.30;;;19.10;63.10;;;;;;4797637;29;87671;-82
2023/03/10 04:24:39;;;;;;;7.18;3.45;;;19.10;63.30;;;;;;4797181;29;89461;-82
2023/03/10 04:27:08;;;;;;;7.15;3.35;;;19.10;63.10;;;;;;4780608;29;92460;-82
2023/03/10 04:29:34;;;;;;;5.03;2.30;;;19.10;64.00;;;;;;4798515;29;87500;-82
2023/03/10 04:32:00;;;;;;;6.20;2.88;;;19.10;63.30;;;;;;4799060;29;87406;-82
2023/03/10 04:34:26;;;;;;;6.10;3.03;;;19.10;63.30;;;;;;4797599;29;88613;-82
2023/03/10 04:36:51;;;;;;;6.55;3.25;;;19.10;63.30;;;;;;4797787;29;88874;-82
2023/03/10 04:39:17;;;;;;;6.82;2.72;;;19.10;63.20;;;;;;4797112;29;86936;-82
2023/03/10 04:41:42;;;;;;;5.13;2.67;;;19.00;63.30;;;;;;4780097;29;89726;-82
2023/03/10 04:44:08;;;;;;;4.90;2.42;;;19.10;63.30;;;;;;4799731;29;88744;-83
2023/03/10 04:46:35;;;;;;;3.80;2.13;;;19.00;63.20;;;;;;4797304;29;89423;-83
2023/03/10 04:49:01;;;;;;;5.70;2.75;;;19.10;63.40;;;;;;4797312;29;88617;-83
2023/03/10 04:51:27;;;;;;;5.20;2.45;;;19.00;63.20;;;;;;4792757;29;87461;-82
2023/03/10 04:53:52;;;;;;;5.50;2.88;;;19.00;63.20;;;;;;4781884;29;90146;-83
2023/03/10 04:56:18;;;;;;;5.47;2.47;;;19.00;63.10;;;;;;4792029;29;86973;-83
2023/03/10 04:58:44;;;;;;;6.35;2.95;;;19.00;63.10;;;;;;4793709;29;87591;-82
2023/03/10 05:01:12;;;;;;;5.10;2.70;;;19.00;63.30;;;;;;4796486;29;87398;-82
2023/03/10 05:03:38;;;;;;;4.78;2.88;;;19.00;63.20;;;;;;4796589;29;88346;-82
2023/03/10 05:06:09;;;;;;;4.85;2.47;;;19.00;63.90;;;;;;4797380;29;87848;-82
2023/03/10 05:08:35;;;;;;;4.43;2.47;;;19.00;63.00;;;;;;4804255;29;87768;-82
2023/03/10 05:11:07;;;;;;;4.95;2.70;;;19.00;63.20;;;;;;4807654;29;87694;-83
2023/03/10 05:13:33;;;;;;;5.80;2.47;;;19.00;63.20;;;;;;4805775;29;88816;-83
2023/03/10 05:15:59;;;;;;;5.05;3.10;;;19.00;63.20;;;;;;4805983;29;88191;-82
2023/03/10 05:18:24;;;;;;;5.93;2.97;;;19.00;63.30;;;;;;4806180;29;87536;-82
2023/03/10 05:20:55;;;;;;;3.92;2.30;;;19.00;63.10;;;;;;4806395;29;95057;-83
2023/03/10 05:23:21;;;;;;;5.80;2.70;;;19.00;63.10;;;;;;4806239;29;88308;-82
2023/03/10 05:25:47;;;;;;;3.67;2.38;;;19.00;63.30;;;;;;4807268;29;87642;-83
2023/03/10 05:28:13;;;;;;;4.15;2.40;;;19.00;63.20;;;;;;4789539;29;87633;-82
2023/03/10 05:30:39;;;;;;;4.72;2.58;;;19.00;63.20;;;;;;4806158;29;86893;-82
2023/03/10 05:33:05;;;;;;;5.95;2.70;;;18.90;63.10;;;;;;4805745;29;88341;-82
2023/03/10 05:35:31;;;;;;;6.57;2.90;;;18.90;63.10;;;;;;4806377;29;87876;-82
2023/03/10 05:48:17;;;;;;;3.25;2.08;;;19.00;62.70;;;;;;4806211;29;86922;-83
2023/03/10 05:50:43;;;;;;;6.15;3.15;;;19.00;62.90;;;;;;4806488;29;87187;-82
2023/03/10 05:53:08;;;;;;;5.18;2.67;;;19.00;62.70;;;;;;4806754;29;87356;-82
2023/03/10 05:55:35;;;;;;;7.00;2.50;;;19.10;62.90;;;;;;4805308;29;88649;-82
2023/03/10 05:58:01;;;;;;;4.68;2.55;;;19.20;63.80;;;;;;4806179;29;87771;-83
2023/03/10 06:00:27;;;;;;;6.28;2.80;;;19.30;62.70;;;;;;4805757;29;87703;-82
2023/03/10 06:02:52;;;;;;;5.65;2.60;;;19.40;62.10;;;;;;4805254;29;87947;-83
2023/03/10 06:05:18;;;;;;;4.50;2.65;;;19.60;61.90;;;;;;4804942;29;89030;-83
2023/03/10 06:07:44;;;;;;;4.10;2.05;;;19.70;61.90;;;;;;4806206;29;88468;-82
2023/03/10 06:10:10;;;;;;;4.47;2.20;;;19.80;61.60;;;;;;4806049;29;87092;-83
2023/03/10 06:12:38;;;;;;;4.38;2.20;;;19.90;61.40;;;;;;4805730;29;87044;-83
2023/03/10 06:15:07;;;;;;;3.13;2.00;;;19.90;61.20;;;;;;4805369;29;87929;-83
2023/03/10 06:17:33;;;;;;;4.32;2.33;;;20.00;61.20;;;;;;4805265;29;87769;-83
2023/03/10 06:19:58;;;;;;;5.60;1.92;;;20.00;61.10;;;;;;4806591;29;87586;-83
2023/03/10 06:22:24;;;;;;;4.97;2.25;;;20.00;61.00;;;;;;4806060;29;86840;-83
2023/03/10 06:24:50;;;;;;;4.22;2.47;;;19.90;61.00;;;;;;4805195;29;88183;-83
2023/03/10 06:27:15;;;;;;;5.60;2.55;;;19.90;60.90;;;;;;4805562;29;87422;-83
2023/03/10 06:29:41;;;;;;;3.63;2.10;;;19.90;61.10;;;;;;4804560;29;88378;-83
2023/03/10 06:32:07;;;;;;;3.63;2.40;;;19.90;61.20;;;;;;4806259;29;86824;-85
2023/03/10 06:34:32;;;;;;;5.03;2.38;;;19.90;61.10;;;;;;4805488;29;89135;-85
2023/03/10 06:36:58;;;;;;;4.50;2.10;;;19.80;60.70;;;;;;4805659;29;88413;-85
2023/03/10 06:39:27;;;;;;;4.55;2.08;;;19.80;61.00;;;;;;4805068;29;87567;-84
2023/03/10 06:45:33;;;;;;;6.03;2.40;;;19.70;61.00;;;;;;4805592;29;87042;-85
2023/03/10 06:47:59;;;;;;;3.95;1.92;;;19.70;61.20;;;;;;4808180;29;86587;-83
2023/03/10 06:50:24;;;;;;;6.18;2.50;;;19.80;61.20;;;;;;4805430;29;87473;-84
2023/03/10 06:52:50;;;;;;;7.40;2.90;;;19.80;61.20;;;;;;4806086;29;87436;-82
2023/03/10 06:55:16;;;;;;;13.07;3.53;;;19.80;61.40;;;;;;4805091;29;89195;-82
2023/03/10 07:11:49;;;;;;;19.27;4.00;;;19.90;61.50;;;;;;4801585;29;91612;-84
2023/03/10 07:14:15;;;;;;;15.10;3.50;;;20.00;61.10;;;;;;4805362;29;87271;-84
2023/03/10 07:16:40;;;;;;;14.57;4.45;;;20.10;61.30;;;;;;4809336;29;87014;-84
2023/03/10 07:19:06;;;;;;;13.05;4.03;;;20.20;61.30;;;;;;4808202;29;87239;-84
2023/03/10 07:21:32;;;;;;;14.35;4.50;;;20.30;61.20;;;;;;4807424;29;88263;-83
2023/03/10 07:40:50;;;;;;;12.63;4.25;;;20.60;60.70;;;;;;4807656;29;90492;-84
2023/03/10 07:43:15;;;;;;;12.77;3.87;;;20.50;60.80;;;;;;4807478;29;89586;-86
2023/03/10 07:45:41;;;;;;;11.73;4.07;;;20.50;61.30;;;;;;4808664;29;87872;-84
2023/03/10 07:48:07;;;;;;;11.20;4.05;;;20.50;61.60;;;;;;4807632;29;87046;-84
2023/03/10 07:50:32;;;;;;;13.55;4.25;;;20.50;61.60;;;;;;4796984;29;87610;-84
2023/03/10 07:52:58;;;;;;;17.95;4.78;;;20.40;61.70;;;;;;4805880;29;89579;-84
2023/03/10 07:55:23;;;;;;;9.50;3.72;;;20.50;61.90;;;;;;4806965;29;88862;-85
2023/03/10 07:57:49;;;;;;;13.18;3.85;;;20.50;61.80;;;;;;4807475;29;87103;-84
2023/03/10 08:00:16;;;;;;;11.77;4.10;;;20.60;60.80;;;;;;4807812;29;87404;-84
2023/03/10 08:02:46;;;;;;;12.90;4.57;;;20.70;61.00;;;;;;4776164;29;90814;-84
2023/03/10 08:05:13;;;;;;;10.18;3.58;;;20.80;61.20;;;;;;4807784;29;90464;-83
2023/03/10 08:07:39;;;;;;;12.35;3.88;;;20.80;60.90;;;;;;4791971;29;87011;-85
2023/03/10 08:10:06;;;;;;;15.77;4.32;;;20.90;60.80;;;;;;4808456;29;88482;-85
2023/03/10 08:12:33;;;;;;;14.30;4.30;;;21.00;61.50;;;;;;4798161;29;88230;-85
2023/03/10 08:14:58;;;;;;;10.52;3.55;;;21.10;60.80;;;;;;4797207;29;87932;-84
2023/03/10 08:17:29;;;;;;;10.27;3.55;;;21.10;60.80;;;;;;4795923;29;88366;-83
2023/03/10 08:19:56;;;;;;;13.80;4.05;;;21.20;60.30;;;;;;4797914;29;87338;-83
2023/03/10 08:22:22;;;;;;;11.95;4.07;;;21.20;60.30;;;;;;4797459;29;88570;-83
2023/03/10 08:24:47;;;;;;;11.98;4.35;;;21.20;60.40;;;;;;4797353;29;88348;-84
2023/03/10 08:27:13;;;;;;;10.30;3.95;;;21.20;60.60;;;;;;4798071;29;87221;-83
2023/03/10 08:29:39;;;;;;;10.52;3.53;;;21.20;60.90;;;;;;4797724;29;87346;-84
2023/03/10 08:32:05;;;;;;;10.93;3.28;;;21.20;60.90;;;;;;4799370;29;87612;-83
2023/03/10 08:34:32;;;;;;;11.73;4.60;;;21.30;60.80;;;;;;4799082;29;88122;-87
2023/03/10 08:36:59;;;;;;;10.38;3.50;;;21.30;60.90;;;;;;4796288;29;87168;-87
2023/03/10 08:39:26;;;;;;;12.63;4.00;;;21.40;60.70;;;;;;4796856;29;88405;-87
2023/03/10 08:41:51;;;;;;;13.75;3.97;;;21.30;60.80;;;;;;4796025;29;89759;-87
2023/03/10 08:44:17;;;;;;;10.68;4.05;;;21.40;60.60;;;;;;4798505;29;89314;-88
2023/03/10 08:46:45;;;;;;;12.15;3.65;;;21.30;60.10;;;;;;4778227;29;87381;-86
2023/03/10 08:49:12;;;;;;;12.07;3.25;;;21.30;59.80;;;;;;4797239;29;87309;-87
2023/03/10 08:51:38;;;;;;;16.27;3.92;;;21.30;60.10;;;;;;4780989;29;90906;-86
2023/03/10 08:54:04;;;;;;;13.52;3.85;;;21.30;59.80;;;;;;4794065;29;87959;-86
2023/03/10 08:56:30;;;;;;;11.38;3.67;;;21.30;60.00;;;;;;4797191;29;87131;-86
2023/03/10 08:58:59;;;;;;;10.30;4.20;;;21.30;59.90;;;;;;4795549;29;89227;-81
2023/03/10 09:01:31;;;;;;;14.38;4.15;;;21.30;59.90;;;;;;4793471;29;87785;-82
2023/03/10 09:04:01;;;;;;;16.33;4.32;;;21.40;59.70;;;;;;4795876;29;88574;-80
2023/03/10 09:06:27;;;;;;;12.45;3.65;;;21.50;59.20;;;;;;4792468;29;88033;-83
2023/03/10 09:08:53;;;;;;;13.00;3.72;;;21.40;59.00;;;;;;4794683;29;88670;-82
2023/03/10 09:11:25;;;;;;;13.13;3.55;;;21.50;58.10;;;;;;4774190;29;89995;-80
2023/03/10 09:13:51;;;;;;;12.68;4.00;;;21.60;57.80;;;;;;4804964;29;88464;-81
2023/03/10 09:16:17;;;;;;;14.65;4.53;;;21.60;57.80;;;;;;4803688;29;87299;-82
2023/03/10 09:18:43;;;;;;;16.95;4.53;;;21.80;58.00;;;;;;4805179;29;87759;-84
2023/03/10 09:21:12;;;;;;;11.98;4.57;;;21.80;57.70;;;;;;4805577;29;89173;-83
2023/03/10 09:23:40;;;;;;;15.87;4.93;;;21.80;57.80;;;;;;4805059;29;89515;-83
2023/03/10 09:26:06;;;;;;;13.27;4.77;;;21.80;58.00;;;;;;4805537;29;87409;-83
2023/03/10 09:28:31;;;;;;;13.02;4.78;;;21.80;58.10;;;;;;4803894;29;87530;-82
2023/03/10 09:30:57;;;;;;;19.48;5.32;;;21.70;58.30;;;;;;4803393;29;89669;-82
2023/03/10 09:33:23;;;;;;;16.77;4.20;;;21.80;58.90;;;;;;4801898;29;89689;-82
2023/03/10 09:35:50;;;;;;;18.15;4.75;;;21.70;58.80;;;;;;4803280;29;87543;-83
2023/03/10 09:38:16;;;;;;;12.52;4.32;;;21.70;59.40;;;;;;4802416;29;87622;-82
2023/03/10 09:40:45;;;;;;;18.08;5.45;;;21.70;60.30;;;;;;4803369;29;88259;-83
2023/03/10 09:43:17;;;;;;;15.30;4.65;;;21.60;60.80;;;;;;4804201;29;89113;-83
2023/03/10 09:45:54;;;;;;;21.15;5.45;;;21.60;60.90;;;;;;4803541;29;87107;-83
2023/03/10 09:48:40;;;;;;;14.52;5.28;;;21.50;61.00;;;;;;4802150;29;89078;-83
2023/03/10 09:51:20;;;;;;;17.98;4.80;;;21.50;60.80;;;;;;4804859;29;88591;-83
2023/03/10 09:54:08;;;;;;;17.52;4.47;;;21.50;61.30;;;;;;4804125;29;89187;-83
2023/03/10 09:56:35;;;;;;;18.10;4.53;;;21.40;61.60;;;;;;4804648;29;87942;-82
2023/03/10 09:59:01;;;;;;;17.67;4.57;;;21.40;61.90;;;;;;4804505;29;87927;-83
2023/03/10 10:01:29;;;;;;;14.35;4.40;;;21.40;61.90;;;;;;4804479;29;88194;-83
2023/03/10 10:04:12;;;;;;;15.83;4.47;;;21.40;61.80;;;;;;4795379;29;87910;-83
2023/03/10 10:06:41;;;;;;;13.60;4.65;;;21.30;61.90;;;;;;4804398;29;87490;-82
2023/03/10 10:09:26;;;;;;;17.60;4.88;;;21.30;62.20;;;;;;4804681;29;87745;-82
2023/03/10 10:11:55;;;;;;;18.40;5.38;;;21.40;61.90;;;;;;4762978;29;90520;-82
2023/03/10 10:14:23;;;;;;;14.00;4.70;;;21.50;62.00;;;;;;4766249;29;89179;-82
2023/03/10 10:17:04;;;;;;;18.85;4.30;;;21.50;62.00;;;;;;4765033;29;87092;-82
2023/03/10 10:19:31;;;;;;;15.93;4.38;;;21.50;61.10;;;;;;4763751;29;87607;-82
2023/03/10 10:22:07;;;;;;;16.00;4.22;;;21.60;61.60;;;;;;4764293;29;90275;-81
2023/03/10 10:24:33;;;;;;;17.15;5.45;;;21.60;61.90;;;;;;4764206;29;89801;-82
2023/03/10 10:26:59;;;;;;;20.42;5.18;;;21.60;61.90;;;;;;4765174;29;86997;-81
2023/03/10 10:29:36;;;;;;;15.15;3.90;;;21.50;62.30;;;;;;4760454;29;87574;-79
2023/03/10 10:32:13;;;;;;;16.73;5.10;;;21.60;61.80;;;;;;4761652;29;88044;-81
2023/03/10 10:34:41;;;;;;;17.80;4.65;;;21.50;61.60;;;;;;4760556;29;92531;-80
2023/03/10 10:37:30;;;;;;;24.73;5.60;;;21.50;62.10;;;;;;4758439;29;87142;-79
2023/03/10 10:39:58;;;;;;;13.63;3.93;;;21.50;62.00;;;;;;4757392;29;87726;-80
2023/03/10 10:42:24;;;;;;;15.90;4.10;;;21.40;62.20;;;;;;4766745;29;87582;-80
2023/03/10 10:44:58;;;;;;;13.55;3.88;;;21.40;62.50;;;;;;4796595;29;87891;-80
2023/03/10 10:47:35;;;;;;;11.27;4.43;;;21.30;62.70;;;;;;4795962;29;88269;-80
2023/03/10 10:50:18;;;;;;;11.15;4.03;;;21.30;62.60;;;;;;4798427;29;86948;-79
2023/03/10 10:52:48;;;;;;;16.70;4.65;;;21.40;62.50;;;;;;4783412;29;94165;-79
2023/03/10 10:55:40;;;;;;;16.55;4.50;;;21.40;62.50;;;;;;4797393;29;87358;-80
2023/03/10 10:58:27;;;;;;;10.23;3.45;;;21.40;62.70;;;;;;4742267;29;87556;-80
2023/03/10 11:00:58;;;;;;;13.38;4.25;;;21.40;62.40;;;;;;4743063;29;87738;-81
2023/03/10 11:03:31;;;;;;;11.93;4.28;;;21.40;62.50;;;;;;4740986;29;88303;-80
2023/03/10 11:05:57;;;;;;;13.85;4.35;;;21.50;63.00;;;;;;4741909;29;88519;-80
2023/03/10 11:08:25;;;;;;;9.70;3.85;;;21.50;62.80;;;;;;4741437;29;88196;-80
2023/03/10 11:11:18;;;;;;;12.27;3.90;;;21.40;62.80;;;;;;4742529;29;87651;-81
2023/03/10 11:14:06;;;;;;;11.07;3.83;;;21.50;63.00;;;;;;4741391;29;94105;-80
2023/03/10 11:16:46;;;;;;;15.27;3.90;;;21.50;63.10;;;;;;4743649;29;89364;-81
2023/03/10 11:19:35;;;;;;;11.82;4.20;;;21.50;63.40;;;;;;4744340;29;87395;-80
2023/03/10 11:22:25;;;;;;;13.93;3.65;;;21.40;63.00;;;;;;4742554;29;87453;-80
2023/03/10 11:25:19;;;;;;;14.75;3.70;;;21.50;63.60;;;;;;4741596;29;87524;-80
2023/03/10 11:28:01;;;;;;;17.65;3.65;;;21.30;63.70;;;;;;4740886;29;90176;-80
2023/03/10 11:30:31;;;;;;;11.05;3.50;;;21.30;64.10;;;;;;4743244;29;87589;-81
2023/03/10 11:33:25;;;;;;;13.18;3.47;;;21.20;63.90;;;;;;4741830;29;87642;-81
2023/03/10 11:35:55;;;;;;;13.18;3.70;;;21.20;64.20;;;;;;4789817;29;88524;-80
2023/03/10 11:38:33;;;;;;;12.32;3.83;;;21.10;64.40;;;;;;4790366;29;87595;-80
2023/03/10 11:41:23;;;;;;;11.80;4.22;;;21.10;64.50;;;;;;4799196;29;88483;-80
2023/03/10 11:43:50;;;;;;;10.75;3.45;;;21.00;64.70;;;;;;4798230;29;92441;-80
2023/03/10 11:46:21;;;;;;;6.90;2.90;;;21.00;64.80;;;;;;4797900;29;89245;-80
2023/03/10 11:49:13;;;;;;;12.80;4.00;;;20.90;64.90;;;;;;4796994;29;87166;-80
2023/03/10 11:52:14;;;;;;;10.63;3.42;;;20.90;65.00;;;;;;4798081;29;87538;-80
2023/03/10 11:54:49;;;;;;;6.43;2.92;;;20.80;65.00;;;;;;4740372;29;87711;-80
2023/03/10 11:57:26;;;;;;;10.88;3.33;;;20.80;65.20;;;;;;4740807;29;88653;-81
2023/03/10 12:00:00;;;;;;;9.30;3.42;;;20.80;65.10;;;;;;4741966;29;87459;-79
2023/03/10 12:02:28;;;;;;;10.25;3.10;;;20.70;65.10;;;;;;4744477;29;87121;-80
2023/03/10 12:04:59;;;;;;;7.20;3.03;;;20.70;65.00;;;;;;4745354;29;87480;-80
2023/03/10 12:07:30;;;;;;;10.25;3.85;;;20.70;65.10;;;;;;4744383;29;88244;-80
2023/03/10 12:10:08;;;;;;;8.40;3.20;;;20.80;64.90;;;;;;4743919;29;92043;-80
2023/03/10 12:12:36;;;;;;;11.95;3.17;;;20.80;64.70;;;;;;4743962;29;88012;-80
2023/03/10 12:15:11;;;;;;;8.13;2.83;;;20.80;64.70;;;;;;4744869;29;87498;-80
2023/03/10 12:17:38;;;;;;;12.35;3.28;;;20.80;64.70;;;;;;4744219;29;87834;-79
2023/03/10 12:20:13;;;;;;;11.57;3.63;;;20.80;64.70;;;;;;4746663;29;88332;-80
2023/03/10 12:22:52;;;;;;;8.68;3.50;;;20.80;64.50;;;;;;4745381;29;87629;-80
2023/03/10 12:25:27;;;;;;;;;;;20.90;64.40;;;;;;4745425;29;87976;-80
2023/03/10 12:28:15;;;;;;;14.57;3.60;;;20.90;64.20;;;;;;4744816;29;88568;-80
2023/03/10 12:30:57;;;;;;;7.93;3.10;;;20.90;64.00;;;;;;4781688;29;87531;-80
2023/03/10 12:33:38;;;;;;;7.68;2.63;;;20.90;64.00;;;;;;4799887;29;88727;-79
2023/03/10 12:36:19;;;;;;;7.45;3.05;;;20.90;64.00;;;;;;4800663;29;87722;-80
2023/03/10 12:38:59;;;;;;;8.45;3.00;;;20.80;64.20;;;;;;4800636;29;88325;-81
2023/03/10 12:41:25;;;;;;;5.75;2.38;;;20.80;64.00;;;;;;4800160;29;90781;-80
2023/03/10 12:43:55;;;;;;;12.38;3.25;;;20.70;64.10;;;;;;4801513;29;87176;-80
2023/03/10 12:46:28;;;;;;;7.18;3.17;;;20.70;63.80;;;;;;4800815;29;87663;-80
2023/03/10 12:49:04;;;;;;;11.32;3.13;;;20.70;64.00;;;;;;4800485;29;88747;-80
2023/03/10 12:51:34;;;;;;;7.18;2.50;;;20.70;63.80;;;;;;4800728;29;87936;-80
2023/03/10 12:54:22;;;;;;;8.93;3.17;;;20.70;63.90;;;;;;4800447;29;87821;-80
2023/03/10 12:57:03;;;;;;;6.55;2.38;;;20.70;63.50;;;;;;4800782;29;87366;-80
2023/03/10 12:59:39;;;;;;;4.88;2.40;;;20.70;63.50;;;;;;4800201;29;89672;-80
2023/03/10 13:02:36;;;;;;;6.93;2.83;;;20.70;63.40;;;;;;4800595;29;89887;-81
2023/03/10 13:05:06;;;;;;;6.35;2.55;;;20.70;63.50;;;;;;4708575;29;87427;-80
2023/03/10 13:07:33;;;;;;;10.60;3.10;;;20.70;63.50;;;;;;4705794;29;87226;-81
2023/03/10 13:10:02;;;;;;;5.70;2.38;;;20.70;63.10;;;;;;4709023;29;90801;-80
2023/03/10 13:12:41;;;;;;;7.40;2.83;;;20.80;62.40;;;;;;4708822;29;87256;-80
2023/03/10 13:15:24;;;;;;;9.25;3.28;;;20.80;62.60;;;;;;4709968;29;87058;-81
2023/03/10 13:17:49;;;;;;;6.95;2.92;;;20.80;62.70;;;;;;4710780;29;86849;-81
2023/03/10 13:20:17;;;;;;;7.90;2.85;;;20.80;62.80;;;;;;4710719;29;88821;-81
2023/03/10 13:22:56;;;;;;;9.10;3.17;;;20.90;62.50;;;;;;4702442;29;92127;-80
2023/03/10 13:25:23;;;;;;;9.98;2.28;;;21.00;62.40;;;;;;4708717;29;88483;-80
2023/03/10 13:27:49;;;;;;;7.30;2.78;;;21.10;62.30;;;;;;4708560;29;87666;-80
2023/03/10 13:30:22;;;;;;;9.93;2.63;;;21.10;62.10;;;;;;4709327;29;88335;-80
2023/03/10 13:32:56;;;;;;;6.55;2.80;;;21.20;62.00;;;;;;4708475;29;90373;-81
2023/03/10 13:35:23;;;;;;;7.03;2.80;;;21.30;61.90;;;;;;4708611;29;87865;-81
2023/03/10 13:38:12;;;;;;;8.88;3.03;;;21.40;62.30;;;;;;4708443;29;87524;-80
2023/03/10 13:43:06;;;;;;;9.07;2.80;;;21.40;62.40;;;;;;4786816;29;86800;-80
2023/03/10 13:45:33;;;;;;;5.82;2.40;;;21.40;62.70;;;;;;4801164;29;87474;-79
2023/03/10 13:48:12;;;;;;;4.85;2.30;;;21.40;62.60;;;;;;4798993;29;87579;-80
2023/03/10 13:50:37;;;;;;;6.18;2.08;;;21.40;62.90;;;;;;4800262;29;89563;-81
2023/03/10 13:53:03;;;;;;;4.97;2.28;;;21.30;63.10;;;;;;4800518;29;89301;-80
2023/03/10 13:55:38;;;;;;;9.68;2.55;;;21.30;62.90;;;;;;4800758;29;87003;-85
2023/03/10 13:58:05;;;;;;;8.43;2.47;;;21.30;63.00;;;;;;4800248;29;87454;-84